Darwin, Australia

5:56 PM ACST on January 24, 2017 (GMT +0930)
Anula | | Change Station

Elev 121 ft 12.39 °S, 130.89 °E | Updated 11 seconds ago

Mostly Cloudy
Mostly Cloudy
80.1 °F
Feels Like 85 °F
N
0.0
Wind Variable Wind from East
Gusts 3.0 mph

Today
High -- | Low -- °F
--% Chance of Precip.
Yesterday
High -- | Low -- °F
Precip. -- in
Pressure 29.68 in
Visibility 6.2 miles
Clouds Few 1700 ft
Mostly Cloudy 25000 ft
Heat Index 85 °F
Dew Point 75 °F
Humidity 85%
Rainfall 2.04 in
Snow Depth Not available.
6:37 AM 7:19 PM
Waning Crescent, 13% visible
METAR YPDN 240800Z 24010KT 9999 FEW017 BKN250 27/24 Q1005 INTER 0900/1100 27015G25KT 2000 SHRA BKN015
Pressure 29.68 in
Visibility 6.2 miles
Clouds Few 1700 ft
Mostly Cloudy 25000 ft
Heat Index 85 °F
Dew Point 75 °F
Humidity 85%
Rainfall 2.04 in
Snow Depth Not available.
6:37 AM 7:19 PM
Waning Crescent, 13% visible
METAR YPDN 240800Z 24010KT 9999 FEW017 BKN250 27/24 Q1005 INTER 0900/1100 27015G25KT 2000 SHRA BKN015

Get Your Daily Forecast Email!

Thanks for signing up!

Be on the lookout for a verification email in your inbox.

You'll start receiving the daily forecast at 8 AM.

×

10-Day Weather Forecast

×

Almanac

Astronomy

Jan. 24, 2017 Rise Set
Actual Time
Civil Twilight
Nautical Twilight
Astronomical Twilight
Moon
Length of Visible Light
Length of Day
Tomorrow will be .
, % of the Moon is Illuminated

Today's Extremes

Country Highs Country Lows

Community

WunderPhotos

Upload Photos

1,962,540 photos uploaded!

WunderBlog® & News

Nearby

Air Quality

  Air Quality AQ Index Pollutant
Not available.

Snow Depth

Station Depth Elevation

Earthquake Activity

City Distance Mag. Time & Date
Minimum magnitude displayed is 2.5.

Coastal Water Temperatures

Place Temperature

Stations

Nearby Weather Stations

Station Location Temp. Windchill Dew Point Humidity Wind Precip. Elev Updated Type